createdAt,value
2022-11-06T00:01:09.464Z,79.45
2022-11-06T00:03:37.049Z,78.47
2022-11-06T00:06:08.216Z,79.10
2022-11-06T00:08:38.386Z,79.22
2022-11-06T00:11:12.682Z,79.32
2022-11-06T00:13:40.415Z,78.50
2022-11-06T00:16:09.289Z,78.29
2022-11-06T00:18:37.036Z,76.98
2022-11-06T00:21:11.840Z,76.21
2022-11-06T00:23:38.941Z,75.79
2022-11-06T00:26:11.092Z,75.48
2022-11-06T00:28:38.122Z,76.17
2022-11-06T00:31:06.845Z,76.91
2022-11-06T00:33:33.654Z,77.49
2022-11-06T00:36:06.715Z,77.87
2022-11-06T00:38:34.065Z,77.18
2022-11-06T00:41:10.574Z,77.26
2022-11-06T00:43:37.624Z,78.00
2022-11-06T00:46:11.456Z,77.89
2022-11-06T00:48:38.960Z,77.74
2022-11-06T00:51:17.385Z,77.32
2022-11-06T00:53:45.257Z,76.46
2022-11-06T00:56:14.341Z,74.82
2022-11-06T00:58:41.308Z,74.49
2022-11-06T01:01:27.218Z,74.80
2022-11-06T01:03:58.961Z,74.00
2022-11-06T01:06:28.994Z,73.21
2022-11-06T01:08:56.427Z,72.83
2022-11-06T01:11:37.492Z,73.35
2022-11-06T01:14:15.579Z,73.79
2022-11-06T01:16:42.865Z,73.37
2022-11-06T01:19:11.598Z,72.47
2022-11-06T01:21:40.221Z,72.72
2022-11-06T01:24:11.424Z,72.93
2022-11-06T01:26:40.732Z,73.17
2022-11-06T01:29:17.564Z,73.60
2022-11-06T01:31:44.682Z,73.12
2022-11-06T01:34:13.057Z,73.78
2022-11-06T01:36:40.509Z,73.99
2022-11-06T01:39:09.033Z,74.29
2022-11-06T01:41:48.014Z,74.42
2022-11-06T01:44:14.609Z,74.50
2022-11-06T01:46:41.179Z,74.45
2022-11-06T01:49:15.540Z,74.57
2022-11-06T01:51:48.047Z,75.17
2022-11-06T01:54:16.275Z,74.87
2022-11-06T01:56:45.601Z,75.45
2022-11-06T01:59:17.269Z,75.13
2022-11-06T02:01:44.441Z,74.82
2022-11-06T02:04:15.995Z,75.91
2022-11-06T02:06:45.279Z,75.50
2022-11-06T02:09:11.861Z,74.68
2022-11-06T02:11:40.922Z,74.96
2022-11-06T02:14:13.730Z,74.41
2022-11-06T02:17:07.999Z,74.92
2022-11-06T02:20:15.315Z,74.78
2022-11-06T02:23:20.043Z,74.74
2022-11-06T02:25:54.703Z,75.15
2022-11-06T02:28:28.309Z,74.46
2022-11-06T02:30:58.295Z,74.99
2022-11-06T02:33:34.284Z,75.08
2022-11-06T02:36:08.988Z,75.05
2022-11-06T02:38:43.111Z,74.87
2022-11-06T02:41:22.862Z,75.78
2022-11-06T02:43:56.409Z,75.38
2022-11-06T02:46:46.385Z,75.49
2022-11-06T02:49:53.463Z,76.10
2022-11-06T02:52:27.653Z,75.49
2022-11-06T02:55:01.916Z,76.11
2022-11-06T02:57:31.984Z,76.91
2022-11-06T03:00:06.001Z,76.18
2022-11-06T03:02:44.921Z,76.68
2022-11-06T03:05:27.247Z,77.00
2022-11-06T03:08:01.879Z,77.82
2022-11-06T03:10:39.098Z,78.46
2022-11-06T03:13:17.845Z,78.20
2022-11-06T03:16:04.949Z,77.57
2022-11-06T03:18:42.481Z,76.84
2022-11-06T03:21:25.262Z,77.56
2022-11-06T03:24:07.827Z,78.40
2022-11-06T03:26:38.341Z,78.66
2022-11-06T03:29:30.815Z,78.30
2022-11-06T03:32:21.056Z,77.64
2022-11-06T03:34:55.291Z,77.48
2022-11-06T03:37:36.486Z,76.78
2022-11-06T03:40:09.229Z,76.63
2022-11-06T03:42:38.014Z,76.05
2022-11-06T03:45:10.798Z,77.16
2022-11-06T03:47:46.035Z,76.44
2022-11-06T03:50:20.227Z,76.34
2022-11-06T03:53:11.610Z,77.59
2022-11-06T03:55:45.051Z,76.26
2022-11-06T03:58:17.141Z,76.59
2022-11-06T04:00:44.996Z,75.85
2022-11-06T04:03:23.361Z,75.79
2022-11-06T04:06:08.131Z,75.55
2022-11-06T04:08:37.196Z,74.88
2022-11-06T04:11:06.556Z,75.68
2022-11-06T04:13:35.612Z,75.32
2022-11-06T04:16:02.581Z,75.19
2022-11-06T04:18:29.348Z,75.01
2022-11-06T04:21:08.128Z,75.16
2022-11-06T04:23:48.831Z,75.27
2022-11-06T04:26:26.449Z,76.07
2022-11-06T04:29:06.324Z,75.82
2022-11-06T04:31:55.656Z,76.34
2022-11-06T04:34:33.648Z,76.96
2022-11-06T04:37:10.672Z,77.06
2022-11-06T04:40:01.823Z,76.74
2022-11-06T04:42:48.568Z,78.69
2022-11-06T04:45:23.387Z,78.48
2022-11-06T04:47:52.213Z,77.81
2022-11-06T04:50:22.273Z,78.20
2022-11-06T04:52:50.972Z,78.06
2022-11-06T04:55:17.667Z,78.33
2022-11-06T04:57:44.298Z,77.69
2022-11-06T05:00:13.653Z,78.04
2022-11-06T05:02:41.509Z,78.71
2022-11-06T05:05:08.907Z,78.73
2022-11-06T05:07:35.537Z,78.83
2022-11-06T05:10:02.168Z,78.77
2022-11-06T05:12:28.925Z,78.57
2022-11-06T05:14:55.497Z,79.65
2022-11-06T05:17:22.163Z,79.62
2022-11-06T05:19:48.728Z,79.49
2022-11-06T05:22:15.378Z,80.40
2022-11-06T05:24:41.961Z,80.73
2022-11-06T05:27:08.562Z,79.85
2022-11-06T05:29:35.119Z,79.41
2022-11-06T05:32:01.868Z,78.33
2022-11-06T05:34:28.422Z,76.81
2022-11-06T05:36:55.122Z,77.98
2022-11-06T05:39:21.740Z,77.74
2022-11-06T05:41:48.367Z,77.96
2022-11-06T05:44:15.239Z,77.72
2022-11-06T05:46:48.750Z,77.63
2022-11-06T05:49:18.632Z,77.90
2022-11-06T05:51:45.599Z,77.61
2022-11-06T05:54:12.582Z,76.91
2022-11-06T05:56:39.131Z,77.10
2022-11-06T05:59:05.886Z,77.72
2022-11-06T06:01:32.573Z,78.43
2022-11-06T06:03:59.373Z,78.42
2022-11-06T06:06:26.704Z,78.41
2022-11-06T06:08:53.405Z,78.43
2022-11-06T06:11:20.127Z,79.06
2022-11-06T06:13:46.889Z,80.13
2022-11-06T06:16:13.453Z,80.84
2022-11-06T06:18:40.129Z,80.71
2022-11-06T06:21:06.773Z,79.88
2022-11-06T06:23:33.390Z,80.23
2022-11-06T06:25:59.941Z,81.28
2022-11-06T06:28:26.774Z,80.82
2022-11-06T06:30:58.589Z,80.89
2022-11-06T06:33:26.916Z,81.79
2022-11-06T06:35:53.499Z,81.36
2022-11-06T06:38:20.151Z,81.53
2022-11-06T06:40:46.707Z,80.83
2022-11-06T06:43:13.399Z,81.12
2022-11-06T06:45:39.991Z,80.23
2022-11-06T06:48:06.981Z,80.50
2022-11-06T06:50:33.793Z,81.91
2022-11-06T06:53:00.682Z,82.66
2022-11-06T06:55:27.244Z,81.29
2022-11-06T06:57:58.940Z,81.06
2022-11-06T07:00:26.913Z,82.01
2022-11-06T07:02:53.531Z,81.66
2022-11-06T07:05:20.790Z,81.99
2022-11-06T07:07:47.360Z,81.79
2022-11-06T07:10:14.492Z,81.99
2022-11-06T07:12:41.279Z,81.97
2022-11-06T07:15:08.703Z,81.84
2022-11-06T07:17:35.299Z,81.49
2022-11-06T07:20:02.071Z,81.64
2022-11-06T07:22:35.513Z,81.69
2022-11-06T07:25:03.767Z,80.54
2022-11-06T07:27:30.340Z,80.40
2022-11-06T07:29:57.009Z,79.70
2022-11-06T07:32:23.597Z,80.42
2022-11-06T07:34:50.238Z,79.46
2022-11-06T07:37:16.874Z,78.19
2022-11-06T07:39:43.689Z,77.81
2022-11-06T07:42:10.241Z,77.76
2022-11-06T07:44:37.340Z,77.52
2022-11-06T07:47:03.988Z,77.89
2022-11-06T07:49:30.620Z,77.19
2022-11-06T07:51:57.211Z,78.04
2022-11-06T07:54:24.010Z,77.36
2022-11-06T07:56:50.571Z,75.94
2022-11-06T07:59:17.311Z,76.63
2022-11-06T08:01:43.996Z,75.61
2022-11-06T08:04:11.275Z,75.46
2022-11-06T08:06:37.883Z,74.73
2022-11-06T08:09:08.564Z,74.36
2022-11-06T08:11:35.439Z,73.69
2022-11-06T08:14:02.449Z,73.11
2022-11-06T08:16:29.499Z,73.96
2022-11-06T08:18:56.065Z,75.54
2022-11-06T08:21:22.979Z,74.75
2022-11-06T08:23:49.689Z,75.44
2022-11-06T08:26:16.592Z,75.90
2022-11-06T08:28:43.153Z,76.60
2022-11-06T08:31:12.938Z,77.11
2022-11-06T08:33:39.965Z,75.65
2022-11-06T08:36:08.116Z,74.08
2022-11-06T08:38:37.139Z,74.72
2022-11-06T08:41:13.125Z,75.30
2022-11-06T08:43:40.405Z,75.31
2022-11-06T08:46:09.257Z,75.53
2022-11-06T08:48:35.923Z,75.18
2022-11-06T08:51:04.280Z,75.63
2022-11-06T08:53:31.085Z,74.96
2022-11-06T08:55:57.631Z,74.78
2022-11-06T08:58:24.368Z,73.61
2022-11-06T09:00:51.010Z,72.47
2022-11-06T09:03:18.224Z,71.66
2022-11-06T09:05:45.293Z,72.13
2022-11-06T09:08:12.551Z,70.04
2022-11-06T09:10:43.972Z,70.84
2022-11-06T09:13:12.032Z,70.17
2022-11-06T09:15:39.541Z,69.23
2022-11-06T09:18:06.635Z,68.46
2022-11-06T09:20:33.472Z,66.74
2022-11-06T09:23:01.740Z,67.62
2022-11-06T09:25:28.781Z,66.37
2022-11-06T09:27:59.264Z,65.00
2022-11-06T09:30:28.804Z,64.82
2022-11-06T09:33:01.522Z,64.87
2022-11-06T09:35:31.289Z,65.86
2022-11-06T09:38:05.932Z,65.66
2022-11-06T09:40:39.310Z,64.68
2022-11-06T09:43:43.164Z,63.62
2022-11-06T09:46:20.997Z,62.95
2022-11-06T09:48:59.228Z,63.33
2022-11-06T09:51:48.315Z,64.40
2022-11-06T09:54:22.564Z,63.83
2022-11-06T09:56:55.322Z,62.54
2022-11-06T09:59:22.349Z,62.24
2022-11-06T10:01:54.631Z,63.59
2022-11-06T10:04:29.761Z,63.83
2022-11-06T10:06:56.758Z,64.43
2022-11-06T10:09:23.496Z,61.91
2022-11-06T10:12:04.764Z,63.76
2022-11-06T10:15:27.180Z,61.35
2022-11-06T10:18:05.901Z,63.00
2022-11-06T10:20:45.150Z,62.61
2022-11-06T10:23:17.756Z,63.46
2022-11-06T10:25:56.349Z,63.29
2022-11-06T10:28:34.991Z,64.14
2022-11-06T10:31:49.032Z,62.23
2022-11-06T10:34:22.312Z,62.75
2022-11-06T10:36:52.604Z,62.57
2022-11-06T10:39:24.157Z,62.44
2022-11-06T10:41:56.645Z,63.07
2022-11-06T10:44:37.681Z,62.02
2022-11-06T10:47:12.396Z,61.57
2022-11-06T10:49:49.813Z,61.43
2022-11-06T10:52:51.857Z,60.74
2022-11-06T10:55:53.830Z,61.06
2022-11-06T10:58:28.093Z,60.63
2022-11-06T11:00:59.998Z,60.10
2022-11-06T11:03:32.450Z,60.11
2022-11-06T11:05:59.088Z,60.41
2022-11-06T11:08:28.714Z,58.18
2022-11-06T11:11:06.078Z,58.85
2022-11-06T11:13:33.650Z,61.19
2022-11-06T11:16:02.481Z,56.71
2022-11-06T11:18:29.175Z,55.16
2022-11-06T11:21:22.637Z,55.99
2022-11-06T11:24:01.247Z,55.04
2022-11-06T11:26:30.795Z,55.23
2022-11-06T11:29:11.341Z,55.16
2022-11-06T11:31:38.706Z,53.96
2022-11-06T11:34:20.708Z,55.67
2022-11-06T11:36:58.191Z,56.33
2022-11-06T11:39:28.787Z,55.57
2022-11-06T11:42:24.048Z,55.92
2022-11-06T11:45:09.418Z,55.86
2022-11-06T11:47:38.554Z,55.79
2022-11-06T11:50:32.960Z,55.22
2022-11-06T11:53:20.989Z,55.35
2022-11-06T11:55:50.437Z,55.93
2022-11-06T11:58:48.889Z,55.59
2022-11-06T12:01:15.568Z,55.23
2022-11-06T12:03:46.687Z,55.44
2022-11-06T12:06:16.071Z,56.41
2022-11-06T12:08:49.268Z,57.00
2022-11-06T12:11:28.864Z,56.00
2022-11-06T12:14:17.059Z,57.22
2022-11-06T12:16:48.806Z,56.43
2022-11-06T12:19:16.145Z,55.77
2022-11-06T12:21:46.200Z,55.76
2022-11-06T12:24:19.991Z,57.26
2022-11-06T12:27:02.042Z,55.74
2022-11-06T12:29:39.937Z,56.42
2022-11-06T12:32:44.095Z,57.13
2022-11-06T12:35:49.323Z,56.46
2022-11-06T12:38:32.936Z,55.84
2022-11-06T12:41:06.999Z,55.60
2022-11-06T12:43:37.091Z,55.80
2022-11-06T12:46:12.618Z,54.89
2022-11-06T12:48:57.259Z,56.16
2022-11-06T12:51:45.218Z,56.20
2022-11-06T12:54:56.121Z,54.01
2022-11-06T12:57:34.908Z,55.31
2022-11-06T13:00:04.212Z,55.60
2022-11-06T13:02:55.045Z,56.05
2022-11-06T13:05:58.000Z,57.99
2022-11-06T13:08:54.968Z,56.20
2022-11-06T13:11:40.177Z,56.42
2022-11-06T13:14:32.794Z,57.85
2022-11-06T13:17:27.024Z,56.55
2022-11-06T13:20:05.333Z,55.80
2022-11-06T13:22:51.245Z,55.12
2022-11-06T13:25:46.345Z,54.50
2022-11-06T13:28:15.995Z,53.05
2022-11-06T13:30:44.100Z,53.62
2022-11-06T13:33:11.494Z,54.86
2022-11-06T13:35:41.569Z,57.14
2022-11-06T13:38:14.760Z,56.99
2022-11-06T13:40:50.455Z,57.41
2022-11-06T13:43:22.135Z,57.22
2022-11-06T13:46:33.372Z,58.65
2022-11-06T13:49:34.433Z,62.19
2022-11-06T13:52:12.908Z,58.35
2022-11-06T13:54:42.735Z,58.62
2022-11-06T13:57:27.877Z,59.29
2022-11-06T14:00:00.236Z,57.70
2022-11-06T14:02:55.124Z,56.57
2022-11-06T14:05:43.615Z,58.37
2022-11-06T14:08:28.325Z,58.19
2022-11-06T14:11:17.650Z,58.64
2022-11-06T14:14:11.533Z,59.71
2022-11-06T14:16:42.878Z,59.54
2022-11-06T14:19:23.336Z,59.38
2022-11-06T14:21:54.854Z,58.55
2022-11-06T14:24:35.508Z,58.53
2022-11-06T14:27:05.615Z,60.02
2022-11-06T14:29:32.126Z,59.55
2022-11-06T14:32:20.000Z,59.22
2022-11-06T14:34:48.060Z,59.28
2022-11-06T14:37:17.522Z,60.03
2022-11-06T14:39:56.134Z,59.73
2022-11-06T14:42:32.086Z,60.67
2022-11-06T14:45:10.783Z,61.66
2022-11-06T14:47:40.110Z,61.46
2022-11-06T14:50:18.552Z,59.65
2022-11-06T14:53:19.617Z,60.04
2022-11-06T14:55:58.102Z,59.63
2022-11-06T14:58:35.019Z,61.05
2022-11-06T15:01:10.933Z,61.21
2022-11-06T15:03:40.526Z,61.01
2022-11-06T15:06:34.658Z,61.00
2022-11-06T15:09:22.650Z,60.56
2022-11-06T15:11:53.367Z,60.93
2022-11-06T15:14:19.981Z,57.42
2022-11-06T15:16:54.499Z,59.28
2022-11-06T15:19:33.839Z,59.89
2022-11-06T15:22:05.861Z,59.57
2022-11-06T15:24:58.395Z,60.21
2022-11-06T15:27:30.517Z,59.66
2022-11-06T15:30:00.699Z,60.03
2022-11-06T15:32:32.233Z,59.82
2022-11-06T15:35:11.821Z,60.28
2022-11-06T15:37:45.691Z,59.70
2022-11-06T15:40:28.450Z,60.22
2022-11-06T15:42:58.192Z,60.69
2022-11-06T15:45:27.312Z,59.83
2022-11-06T15:47:53.908Z,60.01
2022-11-06T15:50:24.243Z,61.01
2022-11-06T15:52:51.020Z,60.38
2022-11-06T15:55:30.148Z,60.48
2022-11-06T15:58:29.535Z,60.14
2022-11-06T16:00:59.355Z,59.94
2022-11-06T16:03:29.422Z,60.68
2022-11-06T16:05:57.882Z,61.62
2022-11-06T16:08:28.433Z,61.49
2022-11-06T16:10:56.336Z,61.20
2022-11-06T16:13:24.933Z,61.46
2022-11-06T16:16:02.068Z,60.73
2022-11-06T16:18:31.380Z,60.78
2022-11-06T16:21:00.695Z,59.62
2022-11-06T16:23:50.574Z,60.84
2022-11-06T16:26:24.649Z,61.27
2022-11-06T16:28:53.625Z,61.89
2022-11-06T16:31:27.016Z,61.76
2022-11-06T16:33:55.866Z,62.09
2022-11-06T16:36:22.932Z,63.48
2022-11-06T16:38:49.737Z,64.49
2022-11-06T16:41:18.092Z,64.66
2022-11-06T16:43:44.813Z,64.28
2022-11-06T16:46:11.377Z,65.43
2022-11-06T16:48:42.490Z,65.22
2022-11-06T16:51:14.987Z,66.84
2022-11-06T16:53:47.810Z,67.04
2022-11-06T16:56:14.569Z,67.10
2022-11-06T16:59:05.092Z,67.76
2022-11-06T17:01:44.912Z,68.16
2022-11-06T17:04:26.481Z,67.53
2022-11-06T17:06:54.047Z,67.83
2022-11-06T17:09:23.424Z,68.41
2022-11-06T17:11:54.408Z,68.26
2022-11-06T17:14:21.859Z,68.47
2022-11-06T17:16:57.287Z,67.66
2022-11-06T17:19:25.127Z,67.78
2022-11-06T17:21:52.090Z,67.36
2022-11-06T17:24:35.952Z,67.24
2022-11-06T17:27:03.798Z,67.78
2022-11-06T17:29:30.463Z,66.92
2022-11-06T17:31:57.184Z,66.36
2022-11-06T17:34:23.747Z,67.62
2022-11-06T17:36:50.450Z,67.55
2022-11-06T17:39:17.088Z,68.47
2022-11-06T17:41:43.781Z,69.68
2022-11-06T17:44:12.288Z,70.06
2022-11-06T17:46:42.237Z,73.35
2022-11-06T17:49:15.738Z,74.34
2022-11-06T17:51:44.686Z,74.88
2022-11-06T17:54:11.723Z,73.94
2022-11-06T17:56:39.029Z,74.44
2022-11-06T17:59:06.684Z,74.13
2022-11-06T18:01:33.453Z,73.66
2022-11-06T18:04:00.303Z,73.86
2022-11-06T18:06:27.528Z,73.66
2022-11-06T18:08:57.664Z,74.08
2022-11-06T18:11:25.015Z,73.15
2022-11-06T18:13:52.145Z,74.06
2022-11-06T18:16:26.306Z,73.67
2022-11-06T18:18:53.441Z,74.28
2022-11-06T18:21:20.604Z,73.92
2022-11-06T18:23:47.224Z,74.88
2022-11-06T18:26:14.008Z,75.32
2022-11-06T18:28:40.940Z,74.74
2022-11-06T18:31:07.737Z,74.33
2022-11-06T18:33:34.711Z,74.15
2022-11-06T18:36:06.052Z,73.77
2022-11-06T18:38:33.047Z,73.41
2022-11-06T18:41:13.458Z,72.14
2022-11-06T18:43:40.377Z,72.93
2022-11-06T18:46:09.050Z,71.93
2022-11-06T18:48:36.315Z,70.77
2022-11-06T18:51:33.525Z,70.30
2022-11-06T18:54:02.527Z,70.09
2022-11-06T18:56:29.102Z,71.24
2022-11-06T18:58:56.021Z,69.60
2022-11-06T19:01:22.821Z,69.96
2022-11-06T19:03:50.084Z,69.14
2022-11-06T19:06:19.101Z,67.81
2022-11-06T19:08:46.260Z,68.18
2022-11-06T19:11:13.964Z,67.30
2022-11-06T19:13:44.859Z,69.42
2022-11-06T19:16:14.969Z,70.22
2022-11-06T19:18:42.015Z,70.40
2022-11-06T19:21:11.070Z,71.31
2022-11-06T19:23:40.482Z,72.30
2022-11-06T19:28:55.748Z,72.36
2022-11-06T19:31:22.379Z,72.11
2022-11-06T19:33:49.039Z,71.43
2022-11-06T19:36:15.720Z,72.02
2022-11-06T19:38:42.358Z,71.54
2022-11-06T19:41:08.913Z,71.54
2022-11-06T19:43:37.446Z,70.97
2022-11-06T19:46:05.061Z,71.72
2022-11-06T19:48:32.518Z,71.17
2022-11-06T19:51:00.228Z,70.67
2022-11-06T19:53:27.550Z,70.51
2022-11-06T19:55:54.166Z,70.17
2022-11-06T19:58:21.239Z,70.86
2022-11-06T20:00:47.851Z,71.13
2022-11-06T20:03:15.778Z,72.73
2022-11-06T20:05:43.083Z,74.18
2022-11-06T20:08:10.133Z,75.03
2022-11-06T20:10:37.318Z,75.53
2022-11-06T20:13:04.825Z,76.29
2022-11-06T20:15:31.919Z,75.54
2022-11-06T20:17:58.645Z,75.70
2022-11-06T20:20:25.340Z,76.17
2022-11-06T20:22:52.437Z,75.43
2022-11-06T20:25:19.446Z,76.48
2022-11-06T20:27:46.459Z,76.80
2022-11-06T20:30:13.434Z,76.82
2022-11-06T20:32:40.075Z,77.21
2022-11-06T20:35:07.415Z,76.12
2022-11-06T20:37:34.321Z,76.79
2022-11-06T20:40:00.874Z,76.30
2022-11-06T20:42:27.739Z,76.94
2022-11-06T20:44:54.297Z,75.68
2022-11-06T20:47:20.939Z,75.77
2022-11-06T20:49:47.655Z,74.88
2022-11-06T20:52:15.253Z,74.72
2022-11-06T20:54:46.769Z,75.53
2022-11-06T20:57:16.264Z,74.81
2022-11-06T20:59:42.817Z,75.54
2022-11-06T21:02:11.353Z,75.48
2022-11-06T21:04:38.371Z,75.70
2022-11-06T21:07:05.669Z,74.84
2022-11-06T21:09:32.275Z,74.24
2022-11-06T21:11:59.003Z,75.36
2022-11-06T21:14:26.041Z,75.89
2022-11-06T21:16:52.733Z,75.79
2022-11-06T21:19:19.496Z,75.81
2022-11-06T21:21:46.062Z,76.37
2022-11-06T21:24:12.616Z,75.94
2022-11-06T21:26:39.797Z,75.63
2022-11-06T21:29:09.722Z,74.37
2022-11-06T21:31:36.679Z,75.54
2022-11-06T21:34:04.225Z,74.95
2022-11-06T21:36:33.496Z,74.11
2022-11-06T21:39:03.173Z,74.06
2022-11-06T21:41:31.528Z,73.99
2022-11-06T21:43:58.093Z,74.39
2022-11-06T21:46:24.955Z,73.73
2022-11-06T21:48:52.759Z,73.87
2022-11-06T21:51:22.751Z,73.99
2022-11-06T21:53:50.211Z,74.65
2022-11-06T21:56:19.942Z,73.44
2022-11-06T21:58:50.238Z,73.52
2022-11-06T22:01:17.980Z,73.86
2022-11-06T22:03:45.159Z,74.38
2022-11-06T22:06:14.007Z,73.57
2022-11-06T22:08:43.529Z,72.29
2022-11-06T22:11:14.045Z,73.07
2022-11-06T22:13:41.312Z,72.04
2022-11-06T22:16:09.429Z,72.07
2022-11-06T22:18:36.922Z,73.28
2022-11-06T22:21:12.303Z,74.59
2022-11-06T22:23:39.277Z,74.89
2022-11-06T22:26:08.012Z,75.16
2022-11-06T22:28:34.709Z,75.06
2022-11-06T22:31:02.697Z,74.75
2022-11-06T22:33:30.923Z,75.05
2022-11-06T22:36:02.932Z,74.20
2022-11-06T22:38:29.989Z,75.48
2022-11-06T22:40:58.826Z,76.16
2022-11-06T22:43:26.483Z,74.96
2022-11-06T22:45:58.462Z,75.17
2022-11-06T22:48:25.555Z,75.62
2022-11-06T22:50:52.126Z,75.23
2022-11-06T22:53:18.891Z,74.81
2022-11-06T22:55:45.765Z,75.27
2022-11-06T22:58:12.414Z,74.52
2022-11-06T23:00:39.148Z,75.00
2022-11-06T23:03:05.852Z,74.96
2022-11-06T23:05:32.452Z,76.18
2022-11-06T23:07:59.156Z,74.86
2022-11-06T23:10:25.722Z,74.64
2022-11-06T23:12:52.445Z,73.95
2022-11-06T23:15:19.203Z,73.48
2022-11-06T23:17:45.828Z,74.44
2022-11-06T23:20:12.367Z,73.91
2022-11-06T23:22:39.070Z,74.42
2022-11-06T23:25:07.231Z,74.29
2022-11-06T23:27:34.955Z,74.22
2022-11-06T23:30:01.975Z,74.44
2022-11-06T23:32:30.803Z,73.51
2022-11-06T23:34:57.518Z,73.79
2022-11-06T23:37:25.757Z,73.14
2022-11-06T23:39:53.090Z,72.40
2022-11-06T23:42:22.366Z,71.98
2022-11-06T23:44:49.598Z,72.39
2022-11-06T23:47:16.223Z,73.09
2022-11-06T23:49:42.783Z,73.92
2022-11-06T23:52:09.459Z,73.62
2022-11-06T23:54:36.017Z,73.46
2022-11-06T23:57:02.634Z,72.54
2022-11-06T23:59:29.245Z,72.19
